Time,TemperatureF,DewpointF,PressureIn,WindDirection,WindDirectionDegrees,WindSpeedMPH,WindSpeedGustMPH,Humidity,HourlyPrecipIn,Conditions,Clouds,dailyrainin,SoftwareType,DateUTC
2013-04-23 00:03:00,31.0,20.0,-100.00,NNE,20,0.0,1.0,64,0.00,,,-99.99,,2013-04-23 04:03:00,
2013-04-23 00:12:00,31.0,21.0,-100.00,SSE,160,0.0,1.0,66,0.00,,,-99.99,,2013-04-23 04:12:00,
2013-04-23 00:23:00,30.0,20.0,-100.00,SW,235,1.0,2.0,66,0.00,,,-99.99,,2013-04-23 04:23:00,
2013-04-23 00:33:00,30.0,21.0,-100.00,ENE,60,0.0,1.0,67,0.00,,,-99.99,,2013-04-23 04:33:00,
2013-04-23 00:43:00,30.0,21.0,-100.00,NW,315,0.0,1.0,69,0.00,,,-99.99,,2013-04-23 04:43:00,
2013-04-23 00:53:00,30.0,21.0,-100.00,SW,220,1.0,2.0,70,0.00,,,-99.99,,2013-04-23 04:53:00,
2013-04-23 01:02:00,29.0,21.0,-100.00,West,260,0.0,1.0,71,0.00,,,-99.99,,2013-04-23 05:02:00,
2013-04-23 01:12:00,29.0,21.0,-100.00,WSW,255,1.0,1.0,72,0.00,,,-99.99,,2013-04-23 05:12:00,
2013-04-23 01:22:00,29.0,21.0,-100.00,SW,220,1.0,1.0,73,0.00,,,-99.99,,2013-04-23 05:22:00,
2013-04-23 01:32:00,29.0,21.0,-100.00,WSW,240,0.0,2.0,73,0.00,,,-99.99,,2013-04-23 05:32:00,
2013-04-23 01:42:00,28.0,21.0,-100.00,SW,235,1.0,1.0,74,0.00,,,-99.99,,2013-04-23 05:42:00,
2013-04-23 01:52:00,28.0,21.0,-100.00,SW,215,1.0,2.0,75,0.00,,,-99.99,,2013-04-23 05:52:00,
2013-04-23 02:02:00,28.0,21.0,-100.00,West,270,1.0,1.0,75,0.00,,,-99.99,,2013-04-23 06:02:00,
2013-04-23 02:12:00,27.0,21.0,-100.00,SW,225,1.0,1.0,76,0.00,,,-99.99,,2013-04-23 06:12:00,
2013-04-23 02:21:00,27.0,21.0,-100.00,WSW,240,1.0,1.0,75,0.00,,,-99.99,,2013-04-23 06:21:00,
2013-04-23 02:33:00,27.0,20.0,-100.00,North,355,0.0,2.0,75,0.00,,,-99.99,,2013-04-23 06:33:00,
2013-04-23 02:42:00,27.0,20.0,-100.00,SW,235,1.0,1.0,77,0.00,,,-99.99,,2013-04-23 06:42:00,
2013-04-23 02:52:00,26.0,20.0,-100.00,SW,235,1.0,2.0,77,0.00,,,-99.99,,2013-04-23 06:52:00,
2013-04-23 03:02:00,26.0,21.0,-100.00,WNW,295,0.0,1.0,79,0.00,,,-99.99,,2013-04-23 07:02:00,
2013-04-23 03:11:00,26.0,21.0,-100.00,West,270,0.0,1.0,79,0.00,,,-99.99,,2013-04-23 07:11:00,
2013-04-23 03:21:00,26.0,20.0,-100.00,SW,220,1.0,1.0,79,0.00,,,-99.99,,2013-04-23 07:21:00,
2013-04-23 03:32:00,26.0,20.0,-100.00,WSW,240,1.0,1.0,79,0.00,,,-99.99,,2013-04-23 07:32:00,
2013-04-23 03:42:00,26.0,20.0,-100.00,SW,230,1.0,1.0,79,0.00,,,-99.99,,2013-04-23 07:42:00,
2013-04-23 03:52:00,25.0,20.0,-100.00,SW,235,0.0,1.0,80,0.00,,,-99.99,,2013-04-23 07:52:00,
2013-04-23 04:02:00,25.0,20.0,-100.00,SW,225,1.0,1.0,80,0.00,,,-99.99,,2013-04-23 08:02:00,
2013-04-23 04:11:00,25.0,20.0,-100.00,SW,225,1.0,1.0,81,0.00,,,-99.99,,2013-04-23 08:11:00,
2013-04-23 04:21:00,25.0,20.0,-100.00,SW,225,1.0,1.0,81,0.00,,,-99.99,,2013-04-23 08:21:00,
2013-04-23 04:32:00,25.0,20.0,-100.00,SW,235,1.0,1.0,81,0.00,,,-99.99,,2013-04-23 08:32:00,
2013-04-23 04:42:00,24.0,20.0,-100.00,SW,230,1.0,1.0,81,0.00,,,-99.99,,2013-04-23 08:42:00,
2013-04-23 04:52:00,24.0,20.0,-100.00,SW,225,1.0,1.0,82,0.00,,,-99.99,,2013-04-23 08:52:00,
2013-04-23 05:02:00,24.0,20.0,-100.00,SW,235,1.0,1.0,83,0.00,,,-99.99,,2013-04-23 09:02:00,
2013-04-23 05:11:00,24.0,20.0,-100.00,SSW,205,1.0,1.0,83,0.00,,,-99.99,,2013-04-23 09:11:00,
2013-04-23 05:21:00,24.0,20.0,-100.00,WSW,240,1.0,1.0,84,0.00,,,-99.99,,2013-04-23 09:21:00,
2013-04-23 05:33:00,24.0,20.0,-100.00,SW,225,1.0,1.0,84,0.00,,,-99.99,,2013-04-23 09:33:00,
2013-04-23 05:43:00,24.0,20.0,-100.00,WSW,245,1.0,1.0,84,0.00,,,-99.99,,2013-04-23 09:43:00,
2013-04-23 05:52:00,24.0,20.0,-100.00,SW,235,1.0,1.0,85,0.00,,,-99.99,,2013-04-23 09:52:00,
2013-04-23 06:03:00,24.0,20.0,-100.00,SW,225,1.0,1.0,86,0.00,,,-99.99,,2013-04-23 10:03:00,
2013-04-23 06:13:00,23.0,20.0,-100.00,SW,235,1.0,1.0,86,0.00,,,-99.99,,2013-04-23 10:13:00,
2013-04-23 06:23:00,24.0,20.0,-100.00,SSW,195,1.0,1.0,87,0.00,,,-99.99,,2013-04-23 10:23:00,
2013-04-23 06:33:00,24.0,21.0,-100.00,WSW,240,1.0,1.0,87,0.00,,,-99.99,,2013-04-23 10:33:00,
2013-04-23 06:42:00,25.0,21.0,-100.00,SW,235,0.0,1.0,86,0.00,,,-99.99,,2013-04-23 10:42:00,
2013-04-23 06:52:00,26.0,23.0,-100.00,ESE,105,0.0,1.0,85,0.00,,,-99.99,,2013-04-23 10:52:00,
2013-04-23 07:03:00,28.0,22.0,-100.00,SSW,210,0.0,1.0,80,0.00,,,-99.99,,2013-04-23 11:03:00,
2013-04-23 07:12:00,29.0,23.0,-100.00,SSE,165,0.0,1.0,78,0.00,,,-99.99,,2013-04-23 11:12:00,
2013-04-23 07:21:00,29.0,23.0,-100.00,ESE,105,1.0,1.0,77,0.00,,,-99.99,,2013-04-23 11:21:00,
2013-04-23 07:32:00,31.0,24.0,-100.00,East,90,1.0,1.0,73,0.00,,,-99.99,,2013-04-23 11:32:00,
2013-04-23 07:42:00,30.0,23.0,-100.00,East,95,1.0,2.0,75,0.00,,,-99.99,,2013-04-23 11:42:00,
2013-04-23 07:52:00,31.0,23.0,-100.00,East,95,1.0,2.0,72,0.00,,,-99.99,,2013-04-23 11:52:00,
2013-04-23 08:02:00,31.0,23.0,-100.00,ESE,110,1.0,3.0,73,0.00,,,-99.99,,2013-04-23 12:02:00,
2013-04-23 08:12:00,31.0,22.0,-100.00,ESE,110,2.0,2.0,67,0.00,,,-99.99,,2013-04-23 12:12:00,
2013-04-23 08:22:00,33.0,23.0,-100.00,ESE,105,2.0,3.0,66,0.00,,,-99.99,,2013-04-23 12:22:00,
2013-04-23 08:32:00,33.0,24.0,-100.00,North,10,2.0,2.0,69,0.00,,,-99.99,,2013-04-23 12:32:00,
2013-04-23 08:42:00,32.0,23.0,-100.00,North,10,2.0,3.0,68,0.00,,,-99.99,,2013-04-23 12:42:00,
2013-04-23 08:52:00,33.0,21.0,-100.00,North,350,2.0,4.0,60,0.00,,,-99.99,,2013-04-23 12:52:00,
2013-04-23 09:01:00,34.0,19.0,-100.00,North,0,2.0,4.0,53,0.00,,,-99.99,,2013-04-23 13:01:00,
2013-04-23 09:11:00,36.0,20.0,-100.00,NE,40,2.0,3.0,50,0.00,,,-99.99,,2013-04-23 13:11:00,
2013-04-23 09:32:00,36.0,19.0,-100.00,ESE,120,2.0,4.0,48,0.00,,,-99.99,,2013-04-23 13:32:00,
2013-04-23 09:42:00,37.0,18.0,-100.00,East,100,2.0,4.0,45,0.00,,,-99.99,,2013-04-23 13:42:00,
2013-04-23 09:52:00,39.0,17.0,-100.00,ESE,110,1.0,3.0,39,0.00,,,-99.99,,2013-04-23 13:52:00,
2013-04-23 10:02:00,38.0,14.0,-100.00,NNW,345,2.0,5.0,36,0.00,,,-99.99,,2013-04-23 14:02:00,
2013-04-23 10:11:00,39.0,14.0,-100.00,ENE,70,2.0,4.0,35,0.00,,,-99.99,,2013-04-23 14:11:00,
2013-04-23 10:22:00,38.0,16.0,-100.00,ESE,115,3.0,6.0,38,0.00,,,-99.99,,2013-04-23 14:22:00,
2013-04-23 10:32:00,40.0,17.0,-100.00,ESE,110,2.0,4.0,40,0.00,,,-99.99,,2013-04-23 14:32:00,
2013-04-23 10:42:00,39.0,18.0,-100.00,ESE,105,3.0,4.0,42,0.00,,,-99.99,,2013-04-23 14:42:00,
2013-04-23 10:52:00,41.0,19.0,-100.00,East,80,2.0,6.0,40,0.00,,,-99.99,,2013-04-23 14:52:00,
2013-04-23 11:01:00,41.0,19.0,-100.00,ESE,115,3.0,6.0,42,0.00,,,-99.99,,2013-04-23 15:01:00,
2013-04-23 11:12:00,44.0,20.0,-100.00,NNE,20,2.0,4.0,37,0.00,,,-99.99,,2013-04-23 15:12:00,
2013-04-23 11:21:00,42.0,19.0,-100.00,ESE,110,2.0,4.0,39,0.00,,,-99.99,,2013-04-23 15:21:00,
2013-04-23 11:32:00,44.0,21.0,-100.00,SSE,165,2.0,4.0,39,0.00,,,-99.99,,2013-04-23 15:32:00,
2013-04-23 11:42:00,44.0,20.0,-100.00,SE,125,1.0,5.0,38,0.00,,,-99.99,,2013-04-23 15:42:00,
2013-04-23 11:53:00,44.0,22.0,-100.00,East,90,2.0,4.0,39,0.00,,,-99.99,,2013-04-23 15:53:00,
2013-04-23 12:03:00,45.0,21.0,-100.00,WNW,295,2.0,6.0,38,0.00,,,-99.99,,2013-04-23 16:03:00,
2013-04-23 12:12:00,45.0,23.0,-100.00,SE,140,3.0,6.0,40,0.00,,,-99.99,,2013-04-23 16:12:00,
2013-04-23 12:23:00,46.0,23.0,-100.00,SSE,155,2.0,6.0,40,0.00,,,-99.99,,2013-04-23 16:23:00,
2013-04-23 12:34:00,47.0,24.0,-100.00,WNW,300,1.0,6.0,40,0.00,,,-99.99,,2013-04-23 16:34:00,
2013-04-23 12:43:00,47.0,24.0,-100.00,ESE,105,1.0,6.0,39,0.00,,,-99.99,,2013-04-23 16:43:00,
2013-04-23 12:52:00,47.0,25.0,-100.00,NW,315,1.0,6.0,42,0.00,,,-99.99,,2013-04-23 16:52:00,
2013-04-23 13:02:00,47.0,26.0,-100.00,West,265,1.0,6.0,43,0.00,,,-99.99,,2013-04-23 17:02:00,
2013-04-23 13:12:00,47.0,27.0,-100.00,WNW,285,2.0,7.0,45,0.00,,,-99.99,,2013-04-23 17:12:00,
2013-04-23 13:22:00,48.0,28.0,-100.00,SSW,210,2.0,6.0,45,0.00,,,-99.99,,2013-04-23 17:22:00,
2013-04-23 13:32:00,47.0,27.0,-100.00,SW,235,2.0,9.0,46,0.00,,,-99.99,,2013-04-23 17:32:00,
2013-04-23 13:42:00,47.0,28.0,-100.00,SW,230,2.0,7.0,47,0.00,,,-99.99,,2013-04-23 17:42:00,
2013-04-23 13:53:00,47.0,29.0,-100.00,SW,215,1.0,7.0,47,0.00,,,-99.99,,2013-04-23 17:53:00,
2013-04-23 14:02:00,47.0,29.0,-100.00,WSW,245,2.0,8.0,48,0.00,,,-99.99,,2013-04-23 18:02:00,
2013-04-23 14:12:00,47.0,30.0,-100.00,SW,215,1.0,7.0,50,0.00,,,-99.99,,2013-04-23 18:12:00,
2013-04-23 14:22:00,47.0,30.0,-100.00,SSW,195,1.0,6.0,51,0.00,,,-99.99,,2013-04-23 18:22:00,
2013-04-23 14:32:00,47.0,31.0,-100.00,SSW,210,3.0,6.0,53,0.00,,,-99.99,,2013-04-23 18:32:00,
2013-04-23 14:42:00,47.0,31.0,-100.00,SW,235,3.0,9.0,53,0.00,,,-99.99,,2013-04-23 18:42:00,
2013-04-23 14:52:00,47.0,32.0,-100.00,SW,215,3.0,7.0,53,0.00,,,-99.99,,2013-04-23 18:52:00,
2013-04-23 15:02:00,49.0,31.0,-100.00,WSW,250,1.0,6.0,50,0.00,,,-99.99,,2013-04-23 19:02:00,
2013-04-23 15:11:00,49.0,33.0,-100.00,WNW,285,2.0,6.0,52,0.00,,,-99.99,,2013-04-23 19:11:00,
2013-04-23 15:22:00,49.0,32.0,-100.00,SW,225,2.0,6.0,52,0.00,,,-99.99,,2013-04-23 19:22:00,
2013-04-23 15:32:00,49.0,33.0,-100.00,WSW,240,4.0,6.0,52,0.00,,,-99.99,,2013-04-23 19:32:00,
2013-04-23 15:42:00,49.0,33.0,-100.00,WNW,285,2.0,9.0,52,0.00,,,-99.99,,2013-04-23 19:42:00,
2013-04-23 15:52:00,49.0,33.0,-100.00,West,270,1.0,7.0,52,0.00,,,-99.99,,2013-04-23 19:52:00,
2013-04-23 16:02:00,49.0,33.0,-100.00,West,265,2.0,6.0,53,0.00,,,-99.99,,2013-04-23 20:02:00,
2013-04-23 16:11:00,49.0,33.0,-100.00,WSW,240,3.0,9.0,55,0.00,,,-99.99,,2013-04-23 20:11:00,
2013-04-23 16:22:00,49.0,34.0,-100.00,WSW,250,3.0,6.0,55,0.00,,,-99.99,,2013-04-23 20:22:00,
2013-04-23 16:32:00,49.0,34.0,-100.00,WSW,255,3.0,6.0,55,0.00,,,-99.99,,2013-04-23 20:32:00,
2013-04-23 16:42:00,49.0,33.0,-100.00,SW,220,2.0,6.0,55,0.00,,,-99.99,,2013-04-23 20:42:00,
2013-04-23 16:52:00,49.0,34.0,-100.00,SW,230,2.0,6.0,56,0.00,,,-99.99,,2013-04-23 20:52:00,
2013-04-23 17:02:00,48.0,33.0,-100.00,WSW,250,1.0,6.0,55,0.00,,,-99.99,,2013-04-23 21:02:00,
2013-04-23 17:12:00,48.0,33.0,-100.00,SW,215,1.0,6.0,56,0.00,,,-99.99,,2013-04-23 21:12:00,
2013-04-23 17:22:00,48.0,33.0,-100.00,SW,235,1.0,6.0,56,0.00,,,-99.99,,2013-04-23 21:22:00,
2013-04-23 17:33:00,47.0,33.0,-100.00,North,350,1.0,8.0,57,0.00,,,-99.99,,2013-04-23 21:33:00,
2013-04-23 17:43:00,47.0,33.0,-100.00,WSW,250,2.0,6.0,58,0.00,,,-99.99,,2013-04-23 21:43:00,
2013-04-23 17:52:00,47.0,33.0,-100.00,SW,235,2.0,7.0,59,0.00,,,-99.99,,2013-04-23 21:52:00,
2013-04-23 18:03:00,47.0,33.0,-100.00,WNW,290,2.0,5.0,58,0.00,,,-99.99,,2013-04-23 22:03:00,
2013-04-23 18:12:00,47.0,33.0,-100.00,WSW,240,1.0,4.0,59,0.00,,,-99.99,,2013-04-23 22:12:00,
2013-04-23 18:22:00,47.0,34.0,-100.00,West,260,1.0,4.0,60,0.00,,,-99.99,,2013-04-23 22:22:00,
2013-04-23 18:33:00,47.0,34.0,-100.00,NW,305,1.0,3.0,59,0.00,,,-99.99,,2013-04-23 22:33:00,
2013-04-23 18:42:00,46.0,33.0,-100.00,SSW,210,1.0,2.0,60,0.00,,,-99.99,,2013-04-23 22:42:00,
2013-04-23 18:52:00,46.0,34.0,-100.00,WNW,300,1.0,4.0,62,0.00,,,-99.99,,2013-04-23 22:52:00,
2013-04-23 19:03:00,45.0,34.0,-100.00,WNW,300,1.0,4.0,62,0.00,,,-99.99,,2013-04-23 23:03:00,
2013-04-23 19:12:00,45.0,34.0,-100.00,West,270,1.0,3.0,63,0.00,,,-99.99,,2013-04-23 23:12:00,
2013-04-23 19:22:00,45.0,34.0,-100.00,NNW,340,3.0,6.0,64,0.00,,,-99.99,,2013-04-23 23:22:00,
2013-04-23 19:32:00,44.0,33.0,-100.00,WNW,300,2.0,7.0,67,0.00,,,-99.99,,2013-04-23 23:32:00,
2013-04-23 19:42:00,43.0,34.0,-100.00,WNW,300,1.0,4.0,68,0.00,,,-99.99,,2013-04-23 23:42:00,
2013-04-23 19:52:00,43.0,33.0,-100.00,NW,305,1.0,3.0,69,0.00,,,-99.99,,2013-04-23 23:52:00,
2013-04-23 20:02:00,42.0,33.0,-100.00,WSW,240,0.0,3.0,70,0.00,,,-99.99,,2013-04-24 00:02:00,
2013-04-23 20:11:00,42.0,33.0,-100.00,NNE,30,0.0,1.0,71,0.00,,,-99.99,,2013-04-24 00:11:00,
2013-04-23 20:22:00,41.0,33.0,-100.00,West,265,1.0,1.0,72,0.00,,,-99.99,,2013-04-24 00:22:00,
2013-04-23 20:32:00,41.0,33.0,-100.00,SW,220,1.0,1.0,73,0.00,,,-99.99,,2013-04-24 00:32:00,
2013-04-23 20:41:00,40.0,33.0,-100.00,WSW,240,1.0,1.0,74,0.00,,,-99.99,,2013-04-24 00:41:00,
2013-04-23 20:52:00,40.0,33.0,-100.00,SW,225,1.0,2.0,77,0.00,,,-99.99,,2013-04-24 00:52:00,
2013-04-23 21:02:00,39.0,33.0,-100.00,WNW,290,1.0,2.0,78,0.00,,,-99.99,,2013-04-24 01:02:00,
2013-04-23 21:11:00,39.0,33.0,-100.00,West,270,1.0,2.0,79,0.00,,,-99.99,,2013-04-24 01:11:00,
2013-04-23 21:21:00,39.0,33.0,-100.00,SW,225,1.0,1.0,78,0.00,,,-99.99,,2013-04-24 01:21:00,
2013-04-23 21:32:00,39.0,33.0,-100.00,SSW,205,1.0,2.0,79,0.00,,,-99.99,,2013-04-24 01:32:00,
2013-04-23 21:42:00,38.0,33.0,-100.00,WSW,255,1.0,2.0,79,0.00,,,-99.99,,2013-04-24 01:42:00,
2013-04-23 21:52:00,38.0,33.0,-100.00,West,270,1.0,2.0,81,0.00,,,-99.99,,2013-04-24 01:52:00,
2013-04-23 22:02:00,37.0,33.0,-100.00,SE,140,1.0,2.0,82,0.00,,,-99.99,,2013-04-24 02:02:00,
2013-04-23 22:18:00,38.0,32.0,-100.00,SW,220,1.0,4.0,81,0.00,,,-99.99,,2013-04-24 02:18:00,
2013-04-23 22:30:00,38.0,32.0,-100.00,SW,230,1.0,3.0,81,0.00,,,-99.99,,2013-04-24 02:30:00,
2013-04-23 22:40:00,37.0,32.0,-100.00,SSW,210,1.0,1.0,83,0.00,,,-99.99,,2013-04-24 02:40:00,
2013-04-23 22:56:00,36.0,32.0,-100.00,SW,215,1.0,2.0,84,0.00,,,-99.99,,2013-04-24 02:56:00,
2013-04-23 23:11:00,35.0,31.0,-100.00,West,270,0.0,1.0,85,0.00,,,-99.99,,2013-04-24 03:11:00,
2013-04-23 23:17:00,36.0,32.0,-100.00,SE,140,1.0,1.0,85,0.00,,,-99.99,,2013-04-24 03:17:00,
2013-04-23 23:29:00,35.0,31.0,-100.00,WNW,300,1.0,2.0,85,0.00,,,-99.99,,2013-04-24 03:29:00,
2013-04-23 23:41:00,35.0,31.0,-100.00,NW,315,1.0,2.0,86,0.00,,,-99.99,,2013-04-24 03:41:00,
2013-04-23 23:50:00,34.0,31.0,-100.00,NNW,340,1.0,2.0,87,0.00,,,-99.99,,2013-04-24 03:50:00,
2013-04-23 23:56:00,34.0,31.0,-100.00,West,270,1.0,2.0,87,0.00,,,-99.99,,2013-04-24 03:56:00,